Time;durP1;ratioP1;P1;durP2;ratioP2;P2;SDS_P1;SDS_P2;PMS_P1;PMS_P2;Temp;Humidity;BMP_temperature;BMP_pressure;BME280_temperature;BME280_humidity;BME280_pressure;Samples;Min_cycle;Max_cycle;Signal;HPM_P1;HPM_P2
2022/08/05 00:02:09;;;;;;;2.50;0.80;;;;;;;17.52;100.00;101652.06;5090334;28;20052;-34
2022/08/05 00:04:38;;;;;;;1.80;0.70;;;;;;;17.51;100.00;101656.06;5092269;28;20048;-36
2022/08/05 00:07:08;;;;;;;1.90;0.70;;;;;;;17.50;100.00;101662.84;5091900;28;20046;-34
2022/08/05 00:09:56;;;;;;;2.70;0.90;;;;;;;17.44;100.00;101661.31;5092384;28;20044;-36
2022/08/05 00:12:25;;;;;;;2.80;0.80;;;;;;;17.42;100.00;101666.47;5089505;28;20047;-33
2022/08/05 00:14:52;;;;;;;2.38;0.70;;;;;;;17.39;100.00;101670.75;5092689;28;20052;-32
2022/08/05 00:17:20;;;;;;;2.10;0.80;;;;;;;17.36;100.00;101662.97;5091708;28;20477;-39
2022/08/05 00:19:48;;;;;;;1.80;0.70;;;;;;;17.34;100.00;101667.28;5092718;28;20095;-41
2022/08/05 00:22:30;;;;;;;1.75;0.63;;;;;;;17.29;100.00;101670.22;5092766;28;20052;-33
2022/08/05 00:24:58;;;;;;;2.97;0.80;;;;;;;17.24;100.00;101671.19;5092141;28;20056;-34
2022/08/05 00:27:29;;;;;;;1.80;0.70;;;;;;;17.19;100.00;101674.16;5092509;28;20101;-40
2022/08/05 00:30:04;;;;;;;1.92;0.63;;;;;;;17.13;100.00;101678.28;5092702;28;20040;-35
2022/08/05 00:32:38;;;;;;;2.17;0.60;;;;;;;17.09;100.00;101674.44;5091894;28;20090;-35
2022/08/05 00:35:08;;;;;;;1.83;0.63;;;;;;;17.06;100.00;101683.53;5092523;28;20416;-39
2022/08/05 00:37:37;;;;;;;2.38;0.60;;;;;;;17.01;100.00;101675.22;5091493;28;20050;-39
2022/08/05 00:40:21;;;;;;;1.90;0.60;;;;;;;16.95;100.00;101674.53;5072332;28;20048;-32
2022/08/05 00:42:57;;;;;;;3.25;0.88;;;;;;;16.92;100.00;101674.34;5089545;28;20558;-39
2022/08/05 00:45:25;;;;;;;1.70;0.60;;;;;;;16.86;100.00;101676.47;5091945;28;20446;-32
2022/08/05 00:48:11;;;;;;;1.95;0.70;;;;;;;16.79;100.00;101674.09;5092345;28;20059;-37
2022/08/05 00:50:39;;;;;;;2.63;0.77;;;;;;;16.76;100.00;101662.66;5092281;28;20055;-33
2022/08/05 00:53:10;;;;;;;1.70;0.90;;;;;;;16.72;100.00;101665.28;5090962;28;20050;-39
2022/08/05 00:55:57;;;;;;;2.30;0.80;;;;;;;16.66;100.00;101660.06;5072202;28;20048;-35
2022/08/05 00:58:25;;;;;;;2.15;0.80;;;;;;;16.63;100.00;101667.19;5089328;28;20048;-39
2022/08/05 01:00:55;;;;;;;2.00;0.80;;;;;;;16.60;100.00;101664.97;5091369;28;20044;-35
2022/08/05 01:03:24;;;;;;;3.50;0.80;;;;;;;16.58;100.00;101672.09;5091828;28;20048;-40
2022/08/05 01:06:01;;;;;;;2.35;0.90;;;;;;;16.53;100.00;101682.34;5071034;28;20331;-32
2022/08/05 01:08:33;;;;;;;1.50;0.65;;;;;;;16.51;100.00;101681.00;5087377;28;20078;-34
2022/08/05 01:11:17;;;;;;;2.20;0.70;;;;;;;16.47;100.00;101686.41;5086622;28;20389;-39
2022/08/05 01:14:00;;;;;;;1.70;0.80;;;;;;;16.45;100.00;101682.25;5091079;28;20412;-32
2022/08/05 01:16:38;;;;;;;2.30;0.70;;;;;;;16.42;100.00;101688.53;5091952;28;20491;-37
2022/08/05 01:19:15;;;;;;;1.50;0.80;;;;;;;16.40;100.00;101694.47;5091559;28;20401;-35
2022/08/05 01:22:22;;;;;;;2.72;0.80;;;;;;;16.41;100.00;101682.06;5091069;28;20162;-36
2022/08/05 01:25:05;;;;;;;2.45;0.80;;;;;;;16.39;100.00;101681.53;5076799;28;20056;-37
2022/08/05 01:27:51;;;;;;;2.03;0.80;;;;;;;16.39;100.00;101681.53;5091095;28;20052;-37
2022/08/05 01:30:24;;;;;;;3.38;0.95;;;;;;;16.37;100.00;101681.06;5091122;28;20043;-38
2022/08/05 01:33:06;;;;;;;2.92;1.25;;;;;;;16.39;100.00;101675.06;5091272;28;20066;-38
2022/08/05 01:35:39;;;;;;;1.77;0.85;;;;;;;16.42;100.00;101689.34;5091203;28;20066;-40
2022/08/05 01:38:20;;;;;;;2.00;0.90;;;;;;;16.43;100.00;101699.47;5091732;28;20093;-34
2022/08/05 01:40:59;;;;;;;3.20;0.80;;;;;;;16.45;100.00;101688.72;5080930;28;20051;-39
2022/08/05 01:43:32;;;;;;;3.92;1.10;;;;;;;16.48;100.00;101690.06;5091427;28;20044;-36
2022/08/05 01:46:02;;;;;;;2.63;0.90;;;;;;;16.50;100.00;101684.97;5080720;28;20055;-36
2022/08/05 01:48:51;;;;;;;3.15;0.82;;;;;;;16.51;100.00;101697.91;5090737;28;20055;-38
2022/08/05 01:51:20;;;;;;;2.15;0.80;;;;;;;16.54;100.00;101694.44;5091402;28;20044;-41
2022/08/05 01:53:52;;;;;;;2.13;0.88;;;;;;;16.57;100.00;101688.19;5090196;28;20044;-38
2022/08/05 01:56:29;;;;;;;2.40;0.90;;;;;;;16.57;100.00;101688.19;5080737;28;20063;-41
2022/08/05 01:59:22;;;;;;;5.38;1.77;;;;;;;16.57;100.00;101688.19;5091191;28;20040;-36
2022/08/05 02:01:55;;;;;;;3.05;0.88;;;;;;;16.56;100.00;101678.06;5091341;28;20444;-41
2022/08/05 02:04:27;;;;;;;2.65;0.80;;;;;;;16.57;100.00;101690.16;5091314;28;20070;-33
2022/08/05 02:06:57;;;;;;;1.80;0.70;;;;;;;16.56;100.00;101689.31;5091544;28;20416;-39
2022/08/05 02:09:26;;;;;;;3.30;1.00;;;;;;;16.58;100.00;101689.00;5090287;28;20486;-34
2022/08/05 02:12:05;;;;;;;2.40;0.90;;;;;;;16.59;100.00;101694.28;5091205;28;20520;-35
2022/08/05 02:14:43;;;;;;;2.70;0.80;;;;;;;16.59;100.00;101697.13;5092491;28;20046;-35
2022/08/05 02:17:23;;;;;;;1.80;0.80;;;;;;;16.58;100.00;101694.66;5094675;28;20052;-34
2022/08/05 02:20:17;;;;;;;2.75;0.85;;;;;;;16.58;100.00;101701.13;5094935;28;20051;-36
2022/08/05 02:22:53;;;;;;;3.13;0.80;;;;;;;16.58;100.00;101703.09;5095022;28;20059;-36
2022/08/05 02:25:25;;;;;;;2.20;0.70;;;;;;;16.57;100.00;101702.25;5094364;28;20047;-44
2022/08/05 02:28:02;;;;;;;1.77;0.70;;;;;;;16.58;100.00;101698.28;5095061;28;20052;-35
2022/08/05 02:30:42;;;;;;;2.47;0.80;;;;;;;16.58;100.00;101695.47;5094240;28;20047;-36
2022/08/05 02:33:22;;;;;;;3.10;0.88;;;;;;;16.57;100.00;101691.00;5094858;28;20048;-33
2022/08/05 02:36:16;;;;;;;3.47;0.70;;;;;;;16.58;100.00;101698.28;5094857;28;20044;-35
2022/08/05 02:38:46;;;;;;;2.05;0.70;;;;;;;16.60;100.00;101687.50;5094076;28;20420;-35
2022/08/05 02:41:22;;;;;;;2.33;0.93;;;;;;;16.62;100.00;101684.38;5094531;28;20135;-36
2022/08/05 02:43:51;;;;;;;2.22;0.80;;;;;;;16.63;100.00;101686.03;5094406;28;20519;-37
2022/08/05 02:46:36;;;;;;;3.22;0.75;;;;;;;16.62;100.00;101688.03;5094165;28;20059;-41
2022/08/05 02:49:25;;;;;;;1.77;0.60;;;;;;;16.62;100.00;101681.56;5074286;28;20044;-34
2022/08/05 02:51:54;;;;;;;1.88;0.60;;;;;;;16.63;100.00;101689.72;5088045;28;20052;-36
2022/08/05 02:54:32;;;;;;;2.30;0.80;;;;;;;16.64;100.00;101693.38;5093333;28;20052;-36
2022/08/05 02:57:06;;;;;;;2.55;0.70;;;;;;;16.64;100.00;101690.56;5094245;28;20127;-38
2022/08/05 02:59:55;;;;;;;1.80;0.63;;;;;;;16.62;100.00;101682.38;5073135;28;20055;-34
2022/08/05 03:02:28;;;;;;;1.65;0.60;;;;;;;16.64;100.00;101682.94;5088438;28;20085;-35
2022/08/05 03:04:58;;;;;;;2.42;0.60;;;;;;;16.63;100.00;101684.09;5072344;28;20056;-35
2022/08/05 03:07:27;;;;;;;1.70;0.60;;;;;;;16.62;100.00;101676.75;5086605;28;20052;-41
2022/08/05 03:10:15;;;;;;;1.55;0.60;;;;;;;16.60;100.00;101675.41;5080021;28;20436;-34
2022/08/05 03:12:53;;;;;;;1.27;0.50;;;;;;;16.58;100.00;101672.94;5092377;28;20044;-39
2022/08/05 03:15:22;;;;;;;1.27;0.60;;;;;;;16.56;100.00;101669.59;5093561;28;20079;-37
2022/08/05 03:17:54;;;;;;;2.15;0.60;;;;;;;16.56;100.00;101663.97;5092872;28;20044;-36
2022/08/05 03:20:23;;;;;;;2.60;0.75;;;;;;;16.52;100.00;101660.13;5092937;28;20396;-35
2022/08/05 03:22:52;;;;;;;1.77;0.50;;;;;;;16.49;100.00;101667.22;5093670;28;20074;-33
2022/08/05 03:25:25;;;;;;;1.63;0.60;;;;;;;16.47;100.00;101675.16;5092881;28;20094;-41
2022/08/05 03:28:14;;;;;;;2.53;0.65;;;;;;;16.44;100.00;101670.16;5092665;28;20154;-36
2022/08/05 03:30:47;;;;;;;1.38;0.60;;;;;;;16.43;100.00;101673.28;5073539;28;20044;-33
2022/08/05 03:33:17;;;;;;;1.90;0.60;;;;;;;16.42;100.00;101677.25;5088135;28;20097;-35
2022/08/05 03:35:46;;;;;;;2.30;0.70;;;;;;;16.41;100.00;101684.88;5092758;28;20048;-35
2022/08/05 03:38:14;;;;;;;2.40;0.63;;;;;;;16.40;100.00;101682.38;5093478;28;20135;-39
2022/08/05 03:40:43;;;;;;;1.60;0.70;;;;;;;16.39;100.00;101683.53;5092817;28;20052;-36
2022/08/05 03:43:16;;;;;;;1.73;0.70;;;;;;;16.36;100.00;101676.56;5092079;28;20382;-34
2022/08/05 03:46:04;;;;;;;1.67;0.65;;;;;;;16.33;100.00;101673.56;5093188;28;20048;-37
2022/08/05 03:48:36;;;;;;;1.20;0.63;;;;;;;16.33;100.00;101676.38;5092851;28;20040;-34
2022/08/05 03:51:12;;;;;;;2.15;0.75;;;;;;;16.32;100.00;101672.72;5093625;28;20044;-34
2022/08/05 03:54:08;;;;;;;3.17;0.70;;;;;;;16.30;100.00;101677.00;5093438;28;20052;-40
2022/08/05 03:56:57;;;;;;;1.77;0.70;;;;;;;16.28;100.00;101673.66;5073068;28;20048;-35
2022/08/05 03:59:30;;;;;;;1.95;0.60;;;;;;;16.30;100.00;101679.81;5090282;28;20101;-36
2022/08/05 04:02:20;;;;;;;1.85;0.60;;;;;;;16.27;100.00;101686.91;5092350;28;20501;-37
2022/08/05 04:05:09;;;;;;;1.52;0.60;;;;;;;16.27;100.00;101691.72;5092294;28;20067;-41
2022/08/05 04:07:39;;;;;;;1.95;0.60;;;;;;;16.25;100.00;101694.84;5093124;28;20417;-36
2022/08/05 04:10:25;;;;;;;1.98;0.68;;;;;;;16.25;100.00;101694.84;5089207;28;20048;-42
2022/08/05 04:12:55;;;;;;;3.13;0.63;;;;;;;16.27;100.00;101697.34;5093029;28;20058;-39
2022/08/05 04:15:26;;;;;;;1.58;0.60;;;;;;;16.27;100.00;101703.81;5091338;28;20476;-40
2022/08/05 04:18:01;;;;;;;1.98;0.63;;;;;;;16.29;100.00;101700.69;5092855;28;20413;-43
2022/08/05 04:20:31;;;;;;;1.60;0.60;;;;;;;16.30;100.00;101694.72;5092669;28;20477;-34
2022/08/05 04:23:00;;;;;;;1.27;0.50;;;;;;;16.32;100.00;101691.59;5092314;28;20040;-37
2022/08/05 04:25:28;;;;;;;2.25;0.60;;;;;;;16.35;100.00;101703.06;5092380;28;20052;-36
2022/08/05 04:28:15;;;;;;;2.95;0.70;;;;;;;16.37;100.00;101711.19;5092732;28;20500;-39
2022/08/05 04:30:44;;;;;;;1.30;0.57;;;;;;;16.39;100.00;101711.69;5091501;28;20109;-37
2022/08/05 04:33:12;;;;;;;2.33;0.70;;;;;;;16.42;100.00;101711.91;5092526;28;20421;-36
2022/08/05 04:35:42;;;;;;;1.77;0.50;;;;;;;16.44;100.00;101711.56;5092209;28;20097;-38
2022/08/05 04:38:30;;;;;;;1.38;0.60;;;;;;;16.45;100.00;101704.78;5091610;28;20043;-43
2022/08/05 04:41:06;;;;;;;2.95;0.60;;;;;;;16.47;100.00;101713.75;5092310;28;20097;-37
2022/08/05 04:43:37;;;;;;;2.63;0.65;;;;;;;16.46;100.00;101712.94;5092374;28;20056;-39
2022/08/05 04:46:14;;;;;;;2.13;0.52;;;;;;;16.45;100.00;101713.25;5091934;28;20494;-35
2022/08/05 04:48:55;;;;;;;1.45;0.50;;;;;;;16.45;100.00;101705.63;5092235;28;20059;-34
2022/08/05 04:51:26;;;;;;;1.67;0.70;;;;;;;16.46;100.00;101712.09;5088789;28;20501;-37
2022/08/05 04:53:57;;;;;;;2.47;0.60;;;;;;;16.45;100.00;101700.00;5091468;28;20051;-34
2022/08/05 04:56:28;;;;;;;1.10;0.47;;;;;;;16.48;100.00;101709.78;5088961;28;20048;-32
2022/08/05 04:59:03;;;;;;;1.92;0.60;;;;;;;16.49;100.00;101705.84;5090156;28;20041;-32
2022/08/05 05:01:51;;;;;;;1.85;0.50;;;;;;;16.53;100.00;101706.88;5090675;28;20050;-39
2022/08/05 05:04:39;;;;;;;2.40;0.63;;;;;;;16.57;100.00;101707.91;5090943;28;20405;-37
2022/08/05 05:07:15;;;;;;;3.60;1.00;;;;;;;16.65;100.00;101715.59;5087137;28;20121;-35
2022/08/05 05:09:44;;;;;;;2.60;0.60;;;;;;;16.72;100.00;101721.63;5090917;28;20056;-33
2022/08/05 05:12:12;;;;;;;3.15;0.68;;;;;;;16.79;100.00;101722.00;5089570;28;20102;-33
2022/08/05 05:14:41;;;;;;;2.55;0.73;;;;;;;16.86;100.00;101725.22;5090799;28;20051;-35
2022/08/05 05:17:18;;;;;;;3.75;0.70;;;;;;;16.94;100.00;101732.09;5090536;28;20128;-38
2022/08/05 05:19:53;;;;;;;3.38;0.70;;;;;;;17.02;100.00;101725.66;5089897;28;20052;-36
2022/08/05 05:22:22;;;;;;;1.75;0.50;;;;;;;17.10;100.00;101732.50;5090788;28;20066;-37
2022/08/05 05:24:53;;;;;;;5.68;0.88;;;;;;;17.19;100.00;101731.41;5091028;28;20048;-36
2022/08/05 05:27:26;;;;;;;4.07;0.80;;;;;;;17.27;100.00;101732.63;5089397;28;20083;-39
2022/08/05 05:30:14;;;;;;;3.00;0.50;;;;;;;17.36;100.00;101735.50;5090701;28;20075;-34
2022/08/05 05:32:58;;;;;;;4.97;0.70;;;;;;;17.44;100.00;101732.69;5089009;28;20044;-32
2022/08/05 05:35:36;;;;;;;3.08;0.63;;;;;;;17.52;100.00;101728.28;5090947;28;20040;-35
2022/08/05 05:38:10;;;;;;;1.52;0.47;;;;;;;17.58;100.00;101724.97;5089124;28;20044;-37
2022/08/05 05:40:40;;;;;;;4.00;0.47;;;;;;;17.65;100.00;101723.69;5089917;28;20047;-34
2022/08/05 05:43:19;;;;;;;3.15;0.55;;;;;;;17.71;100.00;101722.41;5089586;28;20036;-39
2022/08/05 05:46:07;;;;;;;1.85;0.50;;;;;;;17.76;100.00;101714.63;5090311;28;20054;-32
2022/08/05 05:48:43;;;;;;;3.00;0.50;;;;;;;17.83;100.00;101725.41;5086879;28;20071;-34
2022/08/05 05:51:11;;;;;;;2.35;0.60;;;;;;;17.88;100.00;101728.09;5094641;28;20059;-39
2022/08/05 05:53:44;;;;;;;2.53;0.40;;;;;;;17.91;100.00;101718.97;5095121;28;20044;-34
2022/08/05 05:56:27;;;;;;;2.95;0.63;;;;;;;17.91;100.00;101724.63;5091800;28;20162;-35
2022/08/05 05:59:01;;;;;;;2.08;0.57;;;;;;;17.96;100.00;101720.81;5091273;28;20036;-34
2022/08/05 06:01:30;;;;;;;3.22;0.60;;;;;;;18.01;100.00;101724.31;5093539;28;20052;-34
2022/08/05 06:04:06;;;;;;;2.33;0.50;;;;;;;18.07;100.00;101727.81;5092704;28;20408;-33
2022/08/05 06:06:34;;;;;;;4.55;0.43;;;;;;;18.09;100.00;101715.03;5094969;28;20412;-38
2022/08/05 06:09:05;;;;;;;2.10;0.60;;;;;;;18.10;100.00;101705.41;5093393;28;20048;-35
2022/08/05 06:11:34;;;;;;;4.28;0.60;;;;;;;18.10;100.00;101718.69;5094227;28;20044;-37
2022/08/05 06:14:06;;;;;;;2.30;0.40;;;;;;;18.06;100.00;101718.50;5093438;28;20048;-37
2022/08/05 06:16:34;;;;;;;2.35;0.40;;;;;;;18.07;100.00;101716.53;5093321;28;20076;-38
2022/08/05 06:19:04;;;;;;;3.00;0.55;;;;;;;18.07;100.00;101711.69;5094986;28;20044;-35
2022/08/05 06:21:35;;;;;;;2.88;0.40;;;;;;;18.08;100.00;101709.72;5095277;28;20079;-42
2022/08/05 06:24:09;;;;;;;1.60;0.40;;;;;;;18.09;100.00;101733.97;5093546;28;20394;-35
2022/08/05 06:26:38;;;;;;;1.15;0.40;;;;;;;18.13;100.00;101733.00;5074726;28;20052;-36
2022/08/05 06:29:19;;;;;;;2.92;0.47;;;;;;;18.20;100.00;101740.97;5090687;28;20090;-38
2022/08/05 06:32:07;;;;;;;1.70;0.35;;;;;;;18.28;100.00;101737.34;5095029;28;20048;-37
2022/08/05 06:34:52;;;;;;;2.72;0.40;;;;;;;18.46;100.00;101743.84;5094685;28;20044;-40
2022/08/05 06:37:24;;;;;;;3.20;0.47;;;;;;;18.69;100.00;101744.56;5094403;28;20109;-36
2022/08/05 06:40:15;;;;;;;3.47;0.40;;;;;;;19.07;97.75;101747.50;5093574;28;20067;-35
2022/08/05 06:42:48;;;;;;;1.63;0.30;;;;;;;19.50;95.73;101753.94;5094868;28;20059;-37
2022/08/05 06:45:19;;;;;;;1.00;0.30;;;;;;;20.00;92.40;101746.72;5093914;28;20051;-40
2022/08/05 06:48:07;;;;;;;2.05;0.25;;;;;;;20.55;88.60;101755.06;5094729;28;20421;-36
2022/08/05 06:50:55;;;;;;;2.00;0.40;;;;;;;21.13;84.47;101754.06;5092166;28;20089;-37
2022/08/05 06:53:22;;;;;;;1.63;0.50;;;;;;;21.72;81.04;101758.59;5094297;28;20043;-39
2022/08/05 06:55:57;;;;;;;2.72;0.40;;;;;;;22.36;76.36;101757.94;5091332;28;20127;-36
2022/08/05 06:58:25;;;;;;;1.65;0.30;;;;;;;22.92;71.84;101761.72;5093533;28;20493;-40
2022/08/05 07:01:04;;;;;;;1.13;0.30;;;;;;;23.53;68.43;101768.00;5094208;28;20068;-38
2022/08/05 07:03:34;;;;;;;1.50;0.22;;;;;;;24.19;65.13;101774.97;5092959;28;20373;-38
2022/08/05 07:06:03;;;;;;;1.75;0.30;;;;;;;24.71;61.69;101781.16;5093304;28;20055;-37
2022/08/05 07:08:40;;;;;;;1.63;0.40;;;;;;;25.28;58.39;101776.66;5094454;28;20127;-36
2022/08/05 07:11:10;;;;;;;1.67;0.20;;;;;;;25.81;56.83;101773.19;5094110;28;20056;-39
2022/08/05 07:19:34;;;;;;;2.78;0.60;;;;;;;27.02;51.58;101791.09;5093234;28;20036;-36
2022/08/05 07:22:22;;;;;;;2.25;0.50;;;;;;;27.36;50.14;101794.81;5084294;28;20145;-40
2022/08/05 07:24:57;;;;;;;1.45;0.40;;;;;;;27.64;48.54;101791.44;5092381;28;20401;-40
2022/08/05 07:27:26;;;;;;;2.38;0.50;;;;;;;28.02;47.08;101803.69;5093206;28;20564;-44
2022/08/05 07:30:14;;;;;;;1.58;0.30;;;;;;;28.32;46.66;101804.41;5093742;28;20044;-40
2022/08/05 07:32:57;;;;;;;2.95;0.30;;;;;;;28.68;45.65;101802.59;5093151;28;20130;-34
2022/08/05 07:35:24;;;;;;;2.38;0.35;;;;;;;28.89;44.18;101801.94;5093252;28;20142;-34
2022/08/05 07:38:13;;;;;;;2.47;0.28;;;;;;;29.09;43.89;101797.53;5093831;28;20052;-35
2022/08/05 07:41:01;;;;;;;1.50;0.30;;;;;;;29.40;43.50;101792.31;5092830;28;20036;-36
2022/08/05 07:43:50;;;;;;;1.88;0.30;;;;;;;29.79;41.95;101798.16;5093276;28;20536;-43
2022/08/05 07:46:19;;;;;;;2.08;0.40;;;;;;;30.09;40.97;101800.69;5092052;28;20062;-41
2022/08/05 07:48:52;;;;;;;1.98;0.30;;;;;;;30.43;40.17;101796.13;5092694;28;20056;-40
2022/08/05 07:51:33;;;;;;;1.23;0.30;;;;;;;30.68;39.12;101798.19;5092900;28;20539;-41
2022/08/05 07:54:05;;;;;;;1.73;0.40;;;;;;;30.80;38.30;101797.75;5092237;28;20475;-44
2022/08/05 07:56:35;;;;;;;1.27;0.28;;;;;;;30.81;38.25;101793.63;5092920;28;20040;-39
2022/08/05 07:59:24;;;;;;;1.05;0.30;;;;;;;30.79;37.66;101811.31;5093189;28;20040;-36
2022/08/05 08:02:09;;;;;;;1.52;0.30;;;;;;;30.92;37.58;101811.72;5092060;28;20048;-38
2022/08/05 08:04:42;;;;;;;1.30;0.30;;;;;;;31.21;37.44;101817.41;5092735;28;20146;-38
2022/08/05 08:07:12;;;;;;;0.93;0.20;;;;;;;31.38;36.50;101828.03;5092690;28;20105;-40
2022/08/05 08:09:39;;;;;;;1.30;0.30;;;;;;;31.59;36.44;101825.03;5091768;28;20052;-41
2022/08/05 08:12:08;;;;;;;0.50;0.10;;;;;;;31.93;35.69;101827.34;5091984;28;20501;-36
2022/08/05 08:14:57;;;;;;;0.80;0.20;;;;;;;32.14;35.14;101836.69;5092010;28;20040;-39
2022/08/05 08:17:30;;;;;;;1.52;0.28;;;;;;;32.14;35.16;101844.53;5092979;28;20079;-39
2022/08/05 08:19:58;;;;;;;0.93;0.20;;;;;;;31.89;35.82;101841.81;5092702;28;20082;-39
2022/08/05 08:22:51;;;;;;;1.17;0.25;;;;;;;31.55;36.15;101841.56;5091886;28;20063;-40
2022/08/05 08:25:19;;;;;;;0.65;0.20;;;;;;;31.24;36.87;101842.53;5092659;28;20040;-36
2022/08/05 08:28:07;;;;;;;1.58;0.20;;;;;;;30.89;37.19;101847.16;5092550;28;20044;-38
2022/08/05 08:30:47;;;;;;;1.70;0.28;;;;;;;30.54;37.21;101844.28;5071620;28;20489;-37
2022/08/05 08:33:16;;;;;;;1.13;0.32;;;;;;;30.16;37.26;101835.25;5087201;28;20044;-43
2022/08/05 08:35:46;;;;;;;0.90;0.20;;;;;;;29.92;38.26;101850.41;5092360;28;20092;-41
2022/08/05 08:38:30;;;;;;;1.25;0.45;;;;;;;29.75;38.36;101852.84;5092424;28;20339;-42
2022/08/05 08:41:07;;;;;;;1.00;0.28;;;;;;;29.73;38.02;101857.34;5092435;28;20574;-39
2022/08/05 08:43:37;;;;;;;1.48;0.30;;;;;;;29.89;37.79;101862.72;5091197;28;20040;-38
2022/08/05 08:46:29;;;;;;;1.33;0.30;;;;;;;30.31;37.11;101854.19;5071796;28;20513;-38
2022/08/05 08:48:58;;;;;;;1.15;0.20;;;;;;;30.74;36.58;101866.53;5088200;28;20398;-36
2022/08/05 08:51:48;;;;;;;0.80;0.20;;;;;;;31.19;35.83;101863.97;5071299;28;20036;-41
2022/08/05 08:54:36;;;;;;;1.27;0.30;;;;;;;31.36;34.95;101865.97;5091464;28;20386;-39
2022/08/05 08:57:09;;;;;;;2.10;0.20;;;;;;;31.61;35.04;101874.50;5091534;28;20044;-32
2022/08/05 08:59:41;;;;;;;1.20;0.30;;;;;;;31.71;33.67;101862.13;5091920;28;20424;-32
2022/08/05 09:02:19;;;;;;;1.38;0.30;;;;;;;31.76;33.68;101866.66;5092115;28;20048;-31
2022/08/05 09:04:50;;;;;;;1.40;0.30;;;;;;;31.89;33.26;101864.06;5090924;28;20066;-31
2022/08/05 09:07:39;;;;;;;1.88;0.40;;;;;;;31.96;32.57;101873.53;5092189;28;20052;-33
2022/08/05 09:10:25;;;;;;;1.33;0.30;;;;;;;31.62;32.63;101879.03;5088746;28;20511;-32
2022/08/05 09:12:57;;;;;;;2.25;0.30;;;;;;;31.32;33.21;101875.88;5091122;28;20044;-41
2022/08/05 09:15:32;;;;;;;1.55;0.20;;;;;;;31.13;33.40;101872.25;5088312;28;20072;-31
2022/08/05 09:18:08;;;;;;;2.20;0.30;;;;;;;30.82;33.21;101878.84;5091168;28;20425;-31
2022/08/05 09:20:36;;;;;;;0.75;0.25;;;;;;;30.45;33.77;101882.97;5091202;28;20036;-31
2022/08/05 09:23:09;;;;;;;0.77;0.10;;;;;;;30.07;34.08;101883.75;5091785;28;20054;-33
2022/08/05 09:25:49;;;;;;;0.38;0.20;;;;;;;29.60;34.72;101882.78;5089886;28;20036;-33
2022/08/05 09:28:33;;;;;;;0.80;0.20;;;;;;;29.08;35.70;101890.72;5091611;28;20044;-33
2022/08/05 09:31:04;;;;;;;0.95;0.20;;;;;;;28.59;36.38;101893.19;5088087;28;20040;-32
2022/08/05 09:33:55;;;;;;;0.87;0.20;;;;;;;28.10;36.94;101888.66;5090787;28;20504;-31
2022/08/05 09:36:23;;;;;;;0.80;0.20;;;;;;;27.78;37.61;101891.97;5091794;28;20351;-32
2022/08/05 09:39:01;;;;;;;1.23;0.20;;;;;;;27.51;38.25;101895.31;5091551;28;20056;-39
2022/08/05 09:41:29;;;;;;;1.00;0.20;;;;;;;27.27;37.72;101896.63;5090936;28;20044;-32
2022/08/05 09:44:00;;;;;;;1.40;0.30;;;;;;;26.98;38.00;101890.47;5091223;28;20139;-37
2022/08/05 09:46:29;;;;;;;1.75;0.30;;;;;;;26.74;38.82;101890.94;5090586;28;20800;-39
2022/08/05 09:49:03;;;;;;;1.85;0.30;;;;;;;26.60;38.77;101896.41;5091671;28;20040;-32
2022/08/05 09:51:36;;;;;;;1.90;0.30;;;;;;;26.40;39.25;101890.75;5090171;28;20546;-38
2022/08/05 09:54:08;;;;;;;0.98;0.20;;;;;;;26.33;39.85;101904.97;5090838;28;20127;-31
2022/08/05 09:56:38;;;;;;;0.20;0.10;;;;;;;26.23;39.95;101896.97;5090945;28;20048;-42
2022/08/05 09:59:08;;;;;;;0.60;0.20;;;;;;;26.07;39.99;101899.97;5091329;28;20052;-34
2022/08/05 10:01:41;;;;;;;1.05;0.32;;;;;;;26.00;40.40;101908.41;5090490;28;20094;-41
2022/08/05 10:04:15;;;;;;;0.70;0.20;;;;;;;25.96;40.30;101912.41;5091597;28;20048;-36
2022/08/05 10:06:55;;;;;;;1.23;0.40;;;;;;;26.03;40.40;101909.66;5091082;28;20075;-33
2022/08/05 10:09:28;;;;;;;1.13;0.30;;;;;;;25.97;39.94;101914.06;5090515;28;20501;-38
2022/08/05 10:12:08;;;;;;;1.48;0.35;;;;;;;26.12;40.50;101910.28;5090969;28;20044;-35
2022/08/05 10:15:13;;;;;;;2.60;0.63;;;;;;;26.24;39.50;101912.09;5090470;28;20044;-35
2022/08/05 10:17:44;;;;;;;0.70;0.20;;;;;;;26.23;39.85;101916.19;5088851;28;20048;-35
2022/08/05 10:20:25;;;;;;;0.65;0.20;;;;;;;26.23;39.77;101917.00;5091260;28;20461;-36
2022/08/05 10:22:54;;;;;;;0.90;0.20;;;;;;;26.25;39.95;101926.03;5090607;28;20048;-37
2022/08/05 10:25:25;;;;;;;1.08;0.20;;;;;;;26.26;40.15;101932.59;5091125;28;20052;-34
2022/08/05 10:27:53;;;;;;;2.05;0.28;;;;;;;26.30;40.24;101934.34;5090897;28;20040;-32
2022/08/05 10:30:41;;;;;;;1.02;0.30;;;;;;;26.30;40.71;101936.38;5090318;28;20478;-31
2022/08/05 10:33:31;;;;;;;1.20;0.28;;;;;;;26.18;40.30;101940.19;5091105;28;20055;-32
2022/08/05 10:36:05;;;;;;;1.13;0.22;;;;;;;26.14;40.01;101936.47;5092110;28;20549;-31
2022/08/05 10:38:36;;;;;;;1.20;0.22;;;;;;;26.01;40.31;101944.38;5094693;28;20459;-41
2022/08/05 10:41:17;;;;;;;0.82;0.25;;;;;;;25.95;40.75;101954.50;5094441;28;20048;-33
2022/08/05 10:43:55;;;;;;;2.25;0.30;;;;;;;25.88;41.08;101956.38;5094097;28;20063;-31
2022/08/05 10:46:44;;;;;;;1.08;0.20;;;;;;;26.16;40.91;101962.66;5094342;28;20109;-37
2022/08/05 10:49:12;;;;;;;1.23;0.30;;;;;;;26.48;40.81;101960.41;5084309;28;20048;-31
2022/08/05 10:51:46;;;;;;;0.60;0.20;;;;;;;26.62;40.71;101972.13;5093784;28;20075;-32
2022/08/05 10:54:47;;;;;;;0.82;0.10;;;;;;;26.61;40.41;101975.38;5094323;28;20446;-31
2022/08/05 10:57:27;;;;;;;1.50;0.30;;;;;;;26.49;40.69;101970.66;5093334;28;20075;-30
2022/08/05 11:00:14;;;;;;;1.08;0.20;;;;;;;26.46;40.46;101974.28;5094543;28;20048;-32
2022/08/05 11:03:10;;;;;;;0.73;0.20;;;;;;;26.43;40.27;101981.59;5094134;28;20036;-32
2022/08/05 11:06:10;;;;;;;1.08;0.20;;;;;;;26.42;40.51;101979.13;5084450;28;20587;-35
2022/08/05 11:09:17;;;;;;;1.08;0.30;;;;;;;26.39;40.49;101979.88;5090121;28;20105;-31
2022/08/05 11:11:52;;;;;;;2.15;0.30;;;;;;;26.34;41.55;101991.66;5072308;28;20359;-37
2022/08/05 11:14:28;;;;;;;0.77;0.20;;;;;;;26.38;41.56;101993.34;5092886;28;20043;-31
2022/08/05 11:17:28;;;;;;;1.52;0.30;;;;;;;26.60;41.57;102003.16;5092568;28;20036;-35
2022/08/05 11:20:43;;;;;;;2.20;0.30;;;;;;;26.62;40.59;102005.66;5083151;28;20040;-33
2022/08/05 11:23:32;;;;;;;0.95;0.25;;;;;;;26.35;41.01;102010.50;5092858;28;20477;-31
2022/08/05 11:26:22;;;;;;;2.40;0.50;;;;;;;26.26;41.43;102013.53;5091970;28;20066;-30
2022/08/05 11:28:56;;;;;;;1.30;0.30;;;;;;;26.42;41.20;102017.16;5092499;28;20075;-32
2022/08/05 11:31:32;;;;;;;1.05;0.30;;;;;;;26.59;40.83;102017.88;5092688;28;20055;-35
2022/08/05 11:34:36;;;;;;;0.95;0.20;;;;;;;26.75;40.00;102022.28;5092341;28;20040;-33
2022/08/05 11:37:03;;;;;;;3.38;0.60;;;;;;;26.78;41.43;102032.13;5072338;28;20452;-33
2022/08/05 11:39:52;;;;;;;3.35;0.70;;;;;;;26.59;43.18;102030.16;5089933;28;20055;-31
2022/08/05 11:42:33;;;;;;;4.90;1.00;;;;;;;26.39;44.11;102037.94;5092817;28;20139;-30
2022/08/05 11:45:08;;;;;;;3.95;1.10;;;;;;;26.39;44.58;102037.94;5092278;28;20071;-37
2022/08/05 11:47:50;;;;;;;2.63;0.80;;;;;;;26.33;44.49;102038.66;5091063;28;20087;-37
2022/08/05 11:50:21;;;;;;;5.22;1.10;;;;;;;26.15;44.71;102044.00;5092603;28;20048;-31
2022/08/05 11:52:49;;;;;;;5.03;0.95;;;;;;;25.94;45.36;102035.78;5091800;28;20127;-31
2022/08/05 11:55:24;;;;;;;4.43;0.90;;;;;;;25.83;45.98;102051.03;5092215;28;20518;-32
2022/08/05 11:58:04;;;;;;;3.28;0.60;;;;;;;25.65;45.83;102048.63;5092133;28;20511;-34
2022/08/05 12:00:39;;;;;;;1.95;0.60;;;;;;;25.42;45.86;102051.31;5091289;28;20055;-34
2022/08/05 12:03:19;;;;;;;2.75;0.50;;;;;;;25.45;45.79;102052.59;5092289;28;20109;-31
2022/08/05 12:06:01;;;;;;;3.63;0.93;;;;;;;25.48;45.78;102051.88;5091540;28;20117;-31
2022/08/05 12:08:30;;;;;;;2.67;0.52;;;;;;;25.51;46.48;102048.25;5091459;28;20062;-36
2022/08/05 12:11:00;;;;;;;2.22;0.50;;;;;;;25.63;45.94;102058.75;5092048;28;20127;-30
2022/08/05 12:13:34;;;;;;;3.40;0.45;;;;;;;25.73;45.36;102063.91;5092187;28;20047;-35